الصفحة الرئيسية
METAR-TAF:

METAR-TAF

مطار :

كرايستشيرش, نيوزيلندا

دائرة عرض: 43-29S, خط طول: 172-33E, ارتفاع: 38 متر

مراقبة الطقس الحالي

تاريخ ووقت الإصدار 42 دقيقة قبل الساعة 03:30UTC
ريح 11 عقدة من الشمال الغربي, الاتجاه يتراوح بين الغرب و الشمال
درجة الحرارة 23°درجة مئوية
الرطوبة 36%
ضغط 994 hPa
الرؤية 10 كم أو أكثر

METAR: NZCH 250330Z AUTO 31011KT 260V350 9999 NCD 23/07 Q0994

زمن: 16:12 (04:12 UTC)

توقعات

تاريخ ووقت الإصدار 2ساعات و 9 دقيقة قبل الساعة 02:03UTC
التوقعات صالحة من25 الساعة 03 UTC إلى 26 الساعة 06 UTC
ريح 8 عقدة من الشمال
الرؤية 10 كم أو أكثر
الغيوم لا تقل 1500 م ولا وجود لمزنة ركامية السحاب الأسود
من 25 الساعة 1800 UTC
ريح 10 عقدة من الغرب
الرؤية 10 كم أو أكثر
غيوم متفرقة على ارتفاع 5000 قدم
زخات من الأمطار الخفيفة
أصبح
من 26 الساعة 03 UTC إلى 26 الساعة 05 UTC
ريح 8 عقدة من الجنوب/الجنوب الغربي

TAF: NZCH 250203Z 2503/2606 36008KT CAVOK FM251800 27010KT 9999 -SHRA SCT050 BECMG 2603/2605 21008KT

أرصاد الطقس والتوقعات من أكثر من 4000 مطار (تقارير الطقس للمطار METAR والتنبؤ بالطقس بالمطارTAF).

المحطات المتاحة هي النقط الصفراء والحمراء على الخريطة.

حرك المؤشر فوق النقطة لمعرفة اسم المحطة.

ثم انقر لمعرفة أرصاد وتوقعات الطقس.

لتغيير الخارطة: اضغط على الأزرار الخضراء مع رمز الصليب الأسود للتكبير. على الزر الأخضر مع شرطة للتصغير، أو على الأسهم الخضراء للخرائط المجاورة.


METAR-TAF: